createdAt,value
2023-05-21T00:00:48.708Z,3.70
2023-05-21T00:03:18.957Z,3.60
2023-05-21T00:05:50.286Z,3.67
2023-05-21T00:08:19.787Z,3.98
2023-05-21T00:10:49.112Z,4.03
2023-05-21T00:13:18.861Z,4.10
2023-05-21T00:15:48.175Z,4.45
2023-05-21T00:18:18.227Z,4.20
2023-05-21T00:20:47.663Z,4.12
2023-05-21T00:23:18.590Z,4.00
2023-05-21T00:25:49.646Z,4.53
2023-05-21T00:28:19.016Z,4.12
2023-05-21T00:30:48.675Z,4.00
2023-05-21T00:33:18.077Z,4.10
2023-05-21T00:35:47.392Z,3.92
2023-05-21T00:38:18.744Z,4.22
2023-05-21T00:40:48.763Z,4.30
2023-05-21T00:43:18.423Z,4.10
2023-05-21T00:45:48.605Z,4.20
2023-05-21T00:48:18.542Z,4.12
2023-05-21T00:50:49.608Z,3.90
2023-05-21T00:53:19.784Z,4.25
2023-05-21T00:55:49.368Z,4.12
2023-05-21T00:58:19.114Z,4.20
2023-05-21T01:00:48.771Z,3.98
2023-05-21T01:03:19.187Z,4.28
2023-05-21T01:05:48.872Z,4.35
2023-05-21T01:08:20.160Z,4.37
2023-05-21T01:10:50.711Z,4.20
2023-05-21T01:13:20.771Z,4.05
2023-05-21T01:15:50.908Z,4.55
2023-05-21T01:18:20.676Z,4.20
2023-05-21T01:20:50.274Z,4.30
2023-05-21T01:23:19.957Z,4.70
2023-05-21T01:25:49.433Z,4.12
2023-05-21T01:28:18.783Z,4.42
2023-05-21T01:30:48.432Z,4.75
2023-05-21T01:33:24.701Z,4.67
2023-05-21T01:35:57.287Z,4.60
2023-05-21T01:38:32.683Z,4.80
2023-05-21T01:41:04.477Z,4.40
2023-05-21T01:43:35.676Z,4.10
2023-05-21T01:46:05.638Z,4.55
2023-05-21T01:48:36.353Z,4.60
2023-05-21T01:51:06.710Z,4.78
2023-05-21T01:53:38.303Z,4.28
2023-05-21T01:56:08.318Z,4.30
2023-05-21T01:58:37.732Z,4.30
2023-05-21T02:01:07.257Z,4.33
2023-05-21T02:03:37.034Z,4.72
2023-05-21T02:06:06.610Z,4.42
2023-05-21T02:08:36.172Z,5.10
2023-05-21T02:11:05.632Z,4.15
2023-05-21T02:13:36.696Z,4.40
2023-05-21T02:16:08.262Z,4.35
2023-05-21T02:18:37.998Z,4.42
2023-05-21T02:21:07.652Z,4.25
2023-05-21T02:23:36.982Z,4.10
2023-05-21T02:26:06.513Z,4.70
2023-05-21T02:28:36.534Z,4.60
2023-05-21T02:31:05.921Z,4.58
2023-05-21T02:33:35.245Z,4.60
2023-05-21T02:36:05.082Z,4.45
2023-05-21T02:38:34.484Z,4.62
2023-05-21T02:41:03.859Z,4.67
2023-05-21T02:43:35.174Z,4.55
2023-05-21T02:46:05.866Z,4.17
2023-05-21T02:48:35.497Z,4.85
2023-05-21T02:51:05.911Z,4.58
2023-05-21T02:53:35.495Z,4.50
2023-05-21T02:56:05.168Z,4.35
2023-05-21T02:58:34.504Z,4.60
2023-05-21T03:01:03.887Z,4.30
2023-05-21T03:03:33.543Z,4.50
2023-05-21T03:06:04.461Z,4.60
2023-05-21T03:08:33.798Z,4.33
2023-05-21T03:11:03.210Z,4.50
2023-05-21T03:13:32.593Z,4.55
2023-05-21T03:16:02.217Z,5.10
2023-05-21T03:18:33.238Z,4.35
2023-05-21T03:21:02.586Z,4.72
2023-05-21T03:23:32.312Z,5.00
2023-05-21T03:26:02.404Z,4.80
2023-05-21T03:28:32.684Z,5.28
2023-05-21T03:31:03.258Z,5.10
2023-05-21T03:33:37.312Z,4.60
2023-05-21T03:36:08.532Z,4.80
2023-05-21T03:38:38.733Z,4.58
2023-05-21T03:41:10.087Z,4.90
2023-05-21T03:43:40.676Z,5.30
2023-05-21T03:46:10.391Z,4.95
2023-05-21T03:48:47.224Z,5.10
2023-05-21T03:51:18.069Z,5.22
2023-05-21T03:53:47.815Z,4.95
2023-05-21T03:56:18.628Z,4.70
2023-05-21T03:58:48.088Z,5.10
2023-05-21T04:01:17.845Z,5.05
2023-05-21T04:03:48.286Z,5.72
2023-05-21T04:06:19.186Z,4.95
2023-05-21T04:08:48.619Z,5.30
2023-05-21T04:11:18.320Z,5.50
2023-05-21T04:13:48.271Z,5.20
2023-05-21T04:16:19.296Z,4.87
2023-05-21T04:18:49.249Z,5.03
2023-05-21T04:21:18.937Z,4.85
2023-05-21T04:23:48.336Z,4.87
2023-05-21T04:26:19.332Z,5.20
2023-05-21T04:28:48.837Z,5.50
2023-05-21T04:31:18.429Z,5.28
2023-05-21T04:33:48.639Z,5.08
2023-05-21T04:36:18.039Z,5.15
2023-05-21T04:38:48.921Z,5.33
2023-05-21T04:41:19.051Z,5.67
2023-05-21T04:43:48.726Z,5.40
2023-05-21T04:46:18.739Z,5.42
2023-05-21T04:48:49.839Z,5.40
2023-05-21T04:51:19.290Z,5.47
2023-05-21T04:53:50.008Z,5.47
2023-05-21T04:56:19.778Z,5.80
2023-05-21T04:58:49.545Z,5.85
2023-05-21T05:01:19.540Z,6.05
2023-05-21T05:03:49.302Z,5.00
2023-05-21T05:06:19.058Z,5.72
2023-05-21T05:08:48.476Z,5.03
2023-05-21T05:11:19.683Z,5.30
2023-05-21T05:13:49.201Z,5.50
2023-05-21T05:16:20.359Z,5.60
2023-05-21T05:18:49.923Z,5.45
2023-05-21T05:21:19.391Z,5.60
2023-05-21T05:23:48.825Z,5.92
2023-05-21T05:26:18.313Z,5.72
2023-05-21T05:28:47.770Z,5.35
2023-05-21T05:31:17.472Z,5.97
2023-05-21T05:33:47.011Z,5.87
2023-05-21T05:36:16.677Z,5.20
2023-05-21T05:38:46.527Z,5.90
2023-05-21T05:41:16.073Z,5.28
2023-05-21T05:43:45.535Z,5.58
2023-05-21T05:46:15.541Z,5.60
2023-05-21T05:48:44.890Z,5.37
2023-05-21T05:51:17.193Z,5.40
2023-05-21T05:53:47.494Z,5.03
2023-05-21T05:56:17.283Z,5.35
2023-05-21T05:58:46.650Z,5.10
2023-05-21T06:01:17.686Z,5.40
2023-05-21T06:03:47.516Z,5.50
2023-05-21T06:06:18.237Z,5.35
2023-05-21T06:08:47.748Z,5.45
2023-05-21T06:11:19.291Z,5.30
2023-05-21T06:13:48.797Z,5.00
2023-05-21T06:16:18.938Z,5.00
2023-05-21T06:18:48.911Z,5.10
2023-05-21T06:21:18.324Z,5.22
2023-05-21T06:23:48.207Z,5.10
2023-05-21T06:26:19.304Z,5.00
2023-05-21T06:28:49.610Z,5.28
2023-05-21T06:31:21.655Z,4.85
2023-05-21T06:33:51.514Z,5.50
2023-05-21T06:36:21.567Z,5.10
2023-05-21T06:38:51.086Z,4.50
2023-05-21T06:41:21.150Z,5.15
2023-05-21T06:43:55.247Z,5.33
2023-05-21T06:46:43.111Z,5.08
2023-05-21T06:49:14.437Z,4.92
2023-05-21T06:51:44.793Z,5.15
2023-05-21T06:54:14.750Z,5.40
2023-05-21T06:56:45.531Z,5.50
2023-05-21T06:59:16.793Z,5.50
2023-05-21T07:01:46.244Z,5.12
2023-05-21T07:04:15.677Z,5.20
2023-05-21T07:06:45.887Z,5.10
2023-05-21T07:09:15.549Z,5.33
2023-05-21T07:11:44.893Z,4.95
2023-05-21T07:14:14.758Z,5.33
2023-05-21T07:16:44.228Z,5.47
2023-05-21T07:19:16.107Z,5.03
2023-05-21T07:21:46.208Z,5.42
2023-05-21T07:24:15.701Z,5.65
2023-05-21T07:26:45.024Z,5.22
2023-05-21T07:29:15.037Z,5.10
2023-05-21T07:31:44.358Z,5.42
2023-05-21T07:34:13.767Z,5.45
2023-05-21T07:36:43.623Z,6.03
2023-05-21T07:39:13.712Z,5.22
2023-05-21T07:41:43.985Z,5.33
2023-05-21T07:44:13.495Z,5.35
2023-05-21T07:46:44.020Z,5.30
2023-05-21T07:49:15.518Z,5.37
2023-05-21T07:51:45.658Z,6.05
2023-05-21T07:54:15.790Z,5.78
2023-05-21T07:56:45.173Z,5.53
2023-05-21T07:59:17.341Z,5.40
2023-05-21T08:01:46.921Z,5.28
2023-05-21T08:04:19.656Z,5.67
2023-05-21T08:06:49.462Z,5.28
2023-05-21T08:09:19.391Z,5.60
2023-05-21T08:11:48.809Z,5.97
2023-05-21T08:14:18.233Z,5.65
2023-05-21T08:16:48.399Z,5.50
2023-05-21T08:19:18.084Z,5.40
2023-05-21T08:21:47.885Z,5.50
2023-05-21T08:24:17.424Z,5.60
2023-05-21T08:26:47.585Z,5.83
2023-05-21T08:29:17.005Z,5.17
2023-05-21T08:31:46.440Z,5.72
2023-05-21T08:34:16.597Z,5.97
2023-05-21T08:36:51.410Z,5.45
2023-05-21T08:39:38.869Z,6.00
2023-05-21T08:42:13.001Z,5.90
2023-05-21T08:44:45.824Z,6.10
2023-05-21T08:47:17.295Z,6.00
2023-05-21T08:49:48.047Z,6.30
2023-05-21T08:52:17.586Z,5.72
2023-05-21T08:54:48.032Z,5.67
2023-05-21T08:57:18.332Z,6.20
2023-05-21T08:59:48.342Z,6.10
2023-05-21T09:02:20.404Z,5.87
2023-05-21T09:04:53.712Z,6.12
2023-05-21T09:07:25.254Z,6.15
2023-05-21T09:10:11.412Z,5.85
2023-05-21T09:12:41.598Z,5.87
2023-05-21T09:15:12.170Z,6.22
2023-05-21T09:17:41.833Z,5.75
2023-05-21T09:20:18.843Z,5.45
2023-05-21T09:22:51.877Z,5.87
2023-05-21T09:25:29.355Z,6.08
2023-05-21T09:28:00.923Z,6.17
2023-05-21T09:30:32.596Z,5.65
2023-05-21T09:33:03.488Z,6.05
2023-05-21T09:35:36.324Z,5.65
2023-05-21T09:38:09.713Z,5.80
2023-05-21T09:40:43.318Z,5.72
2023-05-21T09:43:16.004Z,6.08
2023-05-21T09:46:00.462Z,6.17
2023-05-21T09:48:42.148Z,5.28
2023-05-21T09:51:17.922Z,6.00
2023-05-21T09:53:55.790Z,5.55
2023-05-21T09:56:27.531Z,5.47
2023-05-21T09:58:58.398Z,5.53
2023-05-21T10:01:53.214Z,4.85
2023-05-21T10:04:24.391Z,5.20
2023-05-21T10:06:54.091Z,4.95
2023-05-21T10:09:23.861Z,5.12
2023-05-21T10:11:54.854Z,5.10
2023-05-21T10:14:26.501Z,5.08
2023-05-21T10:16:57.805Z,4.42
2023-05-21T10:19:27.510Z,5.20
2023-05-21T10:21:57.431Z,4.95
2023-05-21T10:24:27.001Z,4.87
2023-05-21T10:26:56.387Z,4.80
2023-05-21T10:29:26.518Z,4.65
2023-05-21T10:31:56.501Z,4.20
2023-05-21T10:34:25.951Z,4.28
2023-05-21T10:36:57.256Z,5.65
2023-05-21T10:39:26.752Z,4.80
2023-05-21T10:42:14.336Z,4.80
2023-05-21T10:45:01.685Z,4.80
2023-05-21T10:47:50.583Z,5.00
2023-05-21T10:50:24.007Z,4.78
2023-05-21T10:53:25.027Z,4.33
2023-05-21T10:56:01.973Z,4.75
2023-05-21T10:58:34.463Z,4.47
2023-05-21T11:01:04.401Z,4.40
2023-05-21T11:03:37.243Z,4.45
2023-05-21T11:06:06.422Z,5.10
2023-05-21T11:08:37.210Z,5.33
2023-05-21T11:11:06.742Z,5.12
2023-05-21T11:13:49.907Z,5.00
2023-05-21T11:16:21.337Z,5.17
2023-05-21T11:18:55.074Z,5.47
2023-05-21T11:21:26.889Z,5.22
2023-05-21T11:23:58.347Z,5.33
2023-05-21T11:26:29.961Z,5.23
2023-05-21T11:29:08.596Z,4.78
2023-05-21T11:31:41.290Z,5.22
2023-05-21T11:34:31.890Z,4.67
2023-05-21T11:37:26.968Z,5.12
2023-05-21T11:39:57.736Z,5.05
2023-05-21T11:42:32.333Z,5.37
2023-05-21T11:45:06.313Z,5.30
2023-05-21T11:47:36.141Z,5.15
2023-05-21T11:50:06.695Z,4.90
2023-05-21T11:52:36.888Z,5.05
2023-05-21T11:55:07.436Z,4.80
2023-05-21T11:57:37.037Z,4.90
2023-05-21T12:00:13.948Z,4.67
2023-05-21T12:02:46.849Z,5.10
2023-05-21T12:05:16.605Z,5.37
2023-05-21T12:07:49.689Z,5.90
2023-05-21T12:10:23.900Z,4.70
2023-05-21T12:12:56.938Z,5.10
2023-05-21T12:15:25.883Z,5.45
2023-05-21T12:17:56.322Z,5.20
2023-05-21T12:20:28.408Z,5.53
2023-05-21T12:22:59.320Z,5.22
2023-05-21T12:25:29.848Z,5.78
2023-05-21T12:28:00.915Z,5.20
2023-05-21T12:30:30.453Z,5.67
2023-05-21T12:33:00.478Z,5.12
2023-05-21T12:35:30.867Z,5.10
2023-05-21T12:38:03.380Z,4.35
2023-05-21T12:40:40.222Z,4.62
2023-05-21T12:43:16.030Z,5.20
2023-05-21T12:45:46.554Z,4.95
2023-05-21T12:48:16.901Z,4.72
2023-05-21T12:50:47.646Z,5.08
2023-05-21T12:53:17.052Z,5.03
2023-05-21T12:55:46.483Z,4.80
2023-05-21T12:58:17.126Z,4.70
2023-05-21T13:00:46.677Z,5.53
2023-05-21T13:03:16.487Z,5.05
2023-05-21T13:05:46.997Z,5.08
2023-05-21T13:08:17.003Z,5.20
2023-05-21T13:10:46.340Z,4.85
2023-05-21T13:13:15.728Z,5.17
2023-05-21T13:15:45.131Z,5.70
2023-05-21T13:18:15.873Z,5.30
2023-05-21T13:20:45.482Z,5.08
2023-05-21T13:23:16.406Z,5.03
2023-05-21T13:25:45.864Z,5.37
2023-05-21T13:28:16.464Z,5.78
2023-05-21T13:30:45.860Z,5.22
2023-05-21T13:33:15.275Z,5.50
2023-05-21T13:35:45.686Z,4.87
2023-05-21T13:38:15.018Z,4.97
2023-05-21T13:40:44.583Z,5.15
2023-05-21T13:43:13.918Z,5.30
2023-05-21T13:45:43.817Z,4.90
2023-05-21T13:48:13.218Z,5.30
2023-05-21T13:50:42.938Z,5.12
2023-05-21T13:53:12.317Z,5.20
2023-05-21T13:55:41.680Z,5.45
2023-05-21T13:58:11.376Z,5.17
2023-05-21T14:00:42.737Z,5.65
2023-05-21T14:03:12.491Z,5.90
2023-05-21T14:05:41.990Z,5.12
2023-05-21T14:08:12.762Z,5.47
2023-05-21T14:10:42.367Z,5.97
2023-05-21T14:13:19.525Z,5.70
2023-05-21T14:15:45.347Z,5.28
2023-05-21T14:18:14.724Z,5.45
2023-05-21T14:20:44.083Z,5.33
2023-05-21T14:23:13.445Z,5.25
2023-05-21T14:25:43.255Z,6.00
2023-05-21T14:28:12.663Z,5.30
2023-05-21T14:30:42.288Z,5.70
2023-05-21T14:33:13.601Z,5.20
2023-05-21T14:35:44.500Z,5.12
2023-05-21T14:38:14.574Z,5.40
2023-05-21T14:40:44.005Z,5.42
2023-05-21T14:43:13.316Z,5.95
2023-05-21T14:45:43.090Z,5.33
2023-05-21T14:48:12.965Z,5.78
2023-05-21T14:50:42.579Z,6.22
2023-05-21T14:53:12.918Z,5.58
2023-05-21T14:55:42.786Z,5.65
2023-05-21T14:58:12.691Z,5.40
2023-05-21T15:00:42.144Z,5.78
2023-05-21T15:03:12.971Z,6.03
2023-05-21T15:05:42.555Z,5.37
2023-05-21T15:08:11.908Z,5.53
2023-05-21T15:10:41.325Z,5.70
2023-05-21T15:13:10.631Z,5.67
2023-05-21T15:15:40.282Z,5.55
2023-05-21T15:18:10.175Z,5.65
2023-05-21T15:20:39.599Z,5.67
2023-05-21T15:23:16.749Z,5.05
2023-05-21T15:25:40.166Z,5.78
2023-05-21T15:28:09.479Z,4.83
2023-05-21T15:30:38.906Z,5.08
2023-05-21T15:33:08.580Z,5.40
2023-05-21T15:35:38.807Z,4.85
2023-05-21T15:38:08.957Z,4.85
2023-05-21T15:40:43.107Z,4.85
2023-05-21T15:43:12.753Z,4.28
2023-05-21T15:45:42.109Z,5.17
2023-05-21T15:48:12.692Z,4.75
2023-05-21T15:50:42.481Z,5.10
2023-05-21T15:53:12.560Z,4.95
2023-05-21T15:55:42.066Z,5.12
2023-05-21T15:58:11.403Z,4.90
2023-05-21T16:00:40.825Z,4.90
2023-05-21T16:03:10.514Z,4.47
2023-05-21T16:05:39.910Z,4.85
2023-05-21T16:08:10.894Z,4.58
2023-05-21T16:10:40.216Z,4.80
2023-05-21T16:13:09.812Z,4.60
2023-05-21T16:15:39.496Z,4.55
2023-05-21T16:18:09.984Z,4.58
2023-05-21T16:20:39.473Z,4.70
2023-05-21T16:23:08.890Z,4.85
2023-05-21T16:25:38.459Z,4.40
2023-05-21T16:28:07.990Z,4.83
2023-05-21T16:30:37.329Z,5.20
2023-05-21T16:33:06.824Z,5.15
2023-05-21T16:35:36.416Z,4.85
2023-05-21T16:38:05.864Z,4.85
2023-05-21T16:40:35.549Z,5.28
2023-05-21T16:43:04.927Z,4.60
2023-05-21T16:45:43.489Z,4.83
2023-05-21T16:48:13.902Z,5.17
2023-05-21T16:50:43.791Z,5.10
2023-05-21T16:53:13.830Z,5.50
2023-05-21T16:55:43.376Z,5.33
2023-05-21T16:58:13.711Z,5.37
2023-05-21T17:00:43.040Z,4.90
2023-05-21T17:03:12.782Z,4.80
2023-05-21T17:05:42.867Z,5.40
2023-05-21T17:08:12.309Z,5.10
2023-05-21T17:10:41.780Z,4.47
2023-05-21T17:13:21.599Z,5.25
2023-05-21T17:15:42.280Z,5.22
2023-05-21T17:18:12.618Z,5.12
2023-05-21T17:20:43.931Z,5.12
2023-05-21T17:23:13.580Z,4.78
2023-05-21T17:25:43.032Z,4.78
2023-05-21T17:28:12.605Z,4.95
2023-05-21T17:30:43.370Z,5.40
2023-05-21T17:33:12.773Z,5.05
2023-05-21T17:35:42.585Z,4.62
2023-05-21T17:38:12.332Z,5.15
2023-05-21T17:40:41.983Z,5.25
2023-05-21T17:43:11.400Z,5.12
2023-05-21T17:45:40.836Z,5.40
2023-05-21T17:48:10.313Z,5.55
2023-05-21T17:50:39.863Z,5.53
2023-05-21T17:53:09.277Z,5.60
2023-05-21T17:55:38.934Z,5.40
2023-05-21T17:58:10.111Z,5.30
2023-05-21T18:00:39.748Z,5.80
2023-05-21T18:03:09.258Z,5.65
2023-05-21T18:05:38.960Z,5.87
2023-05-21T18:08:10.102Z,6.00
2023-05-21T18:10:39.638Z,5.62
2023-05-21T18:13:08.969Z,5.58
2023-05-21T18:15:38.589Z,5.47
2023-05-21T18:18:08.299Z,6.17
2023-05-21T18:20:38.093Z,5.97
2023-05-21T18:23:07.808Z,6.08
2023-05-21T18:25:37.107Z,5.85
2023-05-21T18:28:06.688Z,5.67
2023-05-21T18:30:36.612Z,6.35
2023-05-21T18:33:08.368Z,5.80
2023-05-21T18:35:37.977Z,6.65
2023-05-21T18:38:09.331Z,6.17
2023-05-21T18:40:39.012Z,5.97
2023-05-21T18:43:10.503Z,5.70
2023-05-21T18:45:40.002Z,5.87
2023-05-21T18:48:09.744Z,6.33
2023-05-21T18:50:39.916Z,5.92
2023-05-21T18:53:09.513Z,6.00
2023-05-21T18:55:40.665Z,5.92
2023-05-21T18:58:10.244Z,6.15
2023-05-21T19:00:39.820Z,5.80
2023-05-21T19:03:09.788Z,6.03
2023-05-21T19:05:39.392Z,6.42
2023-05-21T19:08:09.168Z,6.67
2023-05-21T19:10:39.478Z,6.65
2023-05-21T19:13:09.670Z,6.53
2023-05-21T19:15:39.374Z,6.67
2023-05-21T19:18:09.113Z,6.53
2023-05-21T19:20:38.977Z,6.75
2023-05-21T19:23:08.735Z,6.60
2023-05-21T19:25:39.068Z,6.60
2023-05-21T19:28:08.569Z,7.20
2023-05-21T19:30:38.372Z,6.50
2023-05-21T19:33:07.961Z,7.60
2023-05-21T19:35:38.053Z,6.90
2023-05-21T19:38:07.442Z,7.17
2023-05-21T19:40:37.096Z,6.92
2023-05-21T19:43:13.438Z,6.30
2023-05-21T19:45:43.256Z,5.72
2023-05-21T19:48:12.906Z,5.22
2023-05-21T19:50:42.872Z,5.47
2023-05-21T19:53:13.832Z,5.40
2023-05-21T19:55:44.592Z,5.15
2023-05-21T19:58:15.989Z,4.75
2023-05-21T20:00:45.816Z,5.72
2023-05-21T20:03:17.252Z,5.22
2023-05-21T20:05:46.864Z,4.95
2023-05-21T20:08:16.614Z,6.00
2023-05-21T20:13:15.540Z,5.30
2023-05-21T20:15:44.880Z,5.20
2023-05-21T20:18:15.813Z,5.25
2023-05-21T20:20:46.796Z,5.75
2023-05-21T20:23:16.653Z,5.37
2023-05-21T20:25:46.110Z,5.90
2023-05-21T20:28:15.818Z,6.62
2023-05-21T20:30:53.497Z,5.70
2023-05-21T20:33:23.694Z,5.62
2023-05-21T20:35:53.195Z,5.47
2023-05-21T20:38:24.424Z,6.60
2023-05-21T20:40:55.003Z,5.53
2023-05-21T20:43:24.897Z,6.53
2023-05-21T20:45:59.992Z,6.15
2023-05-21T20:48:32.071Z,6.53
2023-05-21T20:51:03.331Z,6.65
2023-05-21T20:53:33.750Z,6.85
2023-05-21T20:56:04.840Z,7.10
2023-05-21T20:58:35.078Z,7.20
2023-05-21T21:01:04.731Z,7.53
2023-05-21T21:03:34.754Z,7.22
2023-05-21T21:06:06.022Z,7.97
2023-05-21T21:08:35.669Z,7.70
2023-05-21T21:11:05.055Z,7.60
2023-05-21T21:13:37.652Z,8.93
2023-05-21T21:18:36.267Z,7.92
2023-05-21T21:21:07.346Z,7.47
2023-05-21T21:23:37.254Z,8.15
2023-05-21T21:26:06.659Z,7.85
2023-05-21T21:28:36.039Z,8.05
2023-05-21T21:31:05.546Z,8.63
2023-05-21T21:33:35.048Z,9.45
2023-05-21T21:36:04.270Z,8.43
2023-05-21T21:38:33.639Z,8.48
2023-05-21T21:41:03.435Z,7.75
2023-05-21T21:43:32.766Z,9.18
2023-05-21T21:46:02.173Z,8.58
2023-05-21T21:48:31.504Z,8.65
2023-05-21T21:51:00.967Z,8.63
2023-05-21T21:53:30.311Z,8.80
2023-05-21T21:55:59.789Z,8.90
2023-05-21T21:58:29.451Z,8.90
2023-05-21T22:00:59.075Z,8.95
2023-05-21T22:03:28.483Z,8.25
2023-05-21T22:05:57.809Z,9.70
2023-05-21T22:08:28.750Z,9.28
2023-05-21T22:10:58.946Z,10.08
2023-05-21T22:13:29.961Z,9.73
2023-05-21T22:15:59.880Z,10.15
2023-05-21T22:18:40.477Z,10.55
2023-05-21T22:21:00.312Z,10.45
2023-05-21T22:23:30.904Z,10.03
2023-05-21T22:26:00.958Z,11.20
2023-05-21T22:28:30.313Z,12.05
2023-05-21T22:31:00.049Z,11.60
2023-05-21T22:33:29.558Z,11.10
2023-05-21T22:35:59.036Z,12.20
2023-05-21T22:38:28.469Z,12.30
2023-05-21T22:40:58.140Z,12.95
2023-05-21T22:43:27.645Z,12.88
2023-05-21T22:45:57.078Z,12.85
2023-05-21T22:48:26.526Z,12.75
2023-05-21T22:50:57.925Z,12.80
2023-05-21T22:53:27.921Z,13.98
2023-05-21T22:55:57.328Z,13.08
2023-05-21T22:58:26.712Z,13.88
2023-05-21T23:00:56.058Z,14.03
2023-05-21T23:03:25.769Z,13.85
2023-05-21T23:05:55.079Z,14.25
2023-05-21T23:08:24.762Z,13.88
2023-05-21T23:10:54.404Z,13.83
2023-05-21T23:13:23.791Z,14.53
2023-05-21T23:15:53.726Z,14.43
2023-05-21T23:18:23.118Z,14.87
2023-05-21T23:20:52.484Z,15.23
2023-05-21T23:23:21.894Z,15.28
2023-05-21T23:25:53.117Z,14.83
2023-05-21T23:28:22.905Z,15.53
2023-05-21T23:30:52.638Z,14.85
2023-05-21T23:33:22.007Z,14.93
2023-05-21T23:35:51.388Z,15.15
2023-05-21T23:38:21.184Z,14.95
2023-05-21T23:40:50.797Z,15.58
2023-05-21T23:43:20.305Z,15.50
2023-05-21T23:45:49.664Z,15.08
2023-05-21T23:48:19.212Z,16.00
2023-05-21T23:50:48.580Z,15.20
2023-05-21T23:53:18.328Z,16.75
2023-05-21T23:55:47.733Z,17.12
2023-05-21T23:58:17.473Z,16.62
